createdAt,value
2022-09-14T00:01:51.579Z,7.05
2022-09-14T00:04:18.902Z,7.40
2022-09-14T00:06:46.117Z,6.93
2022-09-14T00:09:13.440Z,4.85
2022-09-14T00:11:41.374Z,6.65
2022-09-14T00:14:08.670Z,6.75
2022-09-14T00:16:36.014Z,6.45
2022-09-14T00:19:05.982Z,6.63
2022-09-14T00:21:33.233Z,6.15
2022-09-14T00:24:00.395Z,5.82
2022-09-14T00:26:27.588Z,7.63
2022-09-14T00:28:54.901Z,7.22
2022-09-14T00:31:22.185Z,6.63
2022-09-14T00:33:49.476Z,6.65
2022-09-14T00:36:16.738Z,7.15
2022-09-14T00:38:43.951Z,7.57
2022-09-14T00:41:11.162Z,8.13
2022-09-14T00:43:38.335Z,9.85
2022-09-14T00:46:05.573Z,8.05
2022-09-14T00:48:32.800Z,8.30
2022-09-14T00:51:00.027Z,9.43
2022-09-14T00:53:27.244Z,5.57
2022-09-14T00:55:54.428Z,5.80
2022-09-14T00:58:21.743Z,7.55
2022-09-14T01:00:49.048Z,6.05
2022-09-14T01:03:16.322Z,6.95
2022-09-14T01:05:43.561Z,4.95
2022-09-14T01:08:10.717Z,5.35
2022-09-14T01:10:37.933Z,4.97
2022-09-14T01:13:05.374Z,4.93
2022-09-14T01:15:32.606Z,5.00
2022-09-14T01:17:59.795Z,5.07
2022-09-14T01:20:27.107Z,4.85
2022-09-14T01:22:54.286Z,4.18
2022-09-14T01:25:21.540Z,4.50
2022-09-14T01:27:49.061Z,3.85
2022-09-14T01:30:16.285Z,4.35
2022-09-14T01:32:43.462Z,4.55
2022-09-14T01:35:15.216Z,6.28
2022-09-14T01:37:43.122Z,4.25
2022-09-14T01:40:10.353Z,4.70
2022-09-14T01:42:37.596Z,4.38
2022-09-14T01:45:04.728Z,4.18
2022-09-14T01:47:31.992Z,3.97
2022-09-14T01:49:59.216Z,3.50
2022-09-14T01:52:26.609Z,4.55
2022-09-14T01:54:53.800Z,5.45
2022-09-14T01:57:21.120Z,4.38
2022-09-14T01:59:48.645Z,5.53
2022-09-14T02:02:15.982Z,4.43
2022-09-14T02:04:43.539Z,4.63
2022-09-14T02:07:10.842Z,5.18
2022-09-14T02:09:37.989Z,4.65
2022-09-14T02:12:05.347Z,4.68
2022-09-14T02:14:32.534Z,4.32
2022-09-14T02:16:59.866Z,4.78
2022-09-14T02:19:27.042Z,4.32
2022-09-14T02:21:54.419Z,4.18
2022-09-14T02:24:21.652Z,3.90
2022-09-14T02:26:48.889Z,3.92
2022-09-14T02:29:16.096Z,3.95
2022-09-14T02:31:43.446Z,3.80
2022-09-14T02:34:10.795Z,3.13
2022-09-14T02:36:38.070Z,3.35
2022-09-14T02:39:05.240Z,2.33
2022-09-14T02:41:33.041Z,2.88
2022-09-14T02:44:00.206Z,3.10
2022-09-14T02:46:27.462Z,2.40
2022-09-14T02:48:55.108Z,3.80
2022-09-14T02:51:22.346Z,6.30
2022-09-14T02:53:49.548Z,8.88
2022-09-14T02:56:16.829Z,8.10
2022-09-14T02:58:44.086Z,9.55
2022-09-14T03:01:11.477Z,9.95
2022-09-14T03:03:38.790Z,10.05
2022-09-14T03:06:06.007Z,10.43
2022-09-14T03:08:33.180Z,10.07
2022-09-14T03:11:00.392Z,11.18
2022-09-14T03:13:27.570Z,11.10
2022-09-14T03:15:54.913Z,11.60
2022-09-14T03:18:22.194Z,10.63
2022-09-14T03:20:49.607Z,11.57
2022-09-14T03:23:16.841Z,10.35
2022-09-14T03:25:44.142Z,12.80
2022-09-14T03:28:11.313Z,11.15
2022-09-14T03:30:38.527Z,8.82
2022-09-14T03:33:05.768Z,10.90
2022-09-14T03:35:33.029Z,10.20
2022-09-14T03:38:00.963Z,11.32
2022-09-14T03:40:28.240Z,12.07
2022-09-14T03:42:55.544Z,12.27
2022-09-14T03:45:22.731Z,11.32
2022-09-14T03:47:49.982Z,13.13
2022-09-14T03:50:17.188Z,13.32
2022-09-14T03:52:44.398Z,12.60
2022-09-14T03:55:11.735Z,11.95
2022-09-14T03:57:38.951Z,12.45
2022-09-14T04:00:06.181Z,13.30
2022-09-14T04:02:38.389Z,13.20
2022-09-14T04:05:05.666Z,12.20
2022-09-14T04:07:32.903Z,12.25
2022-09-14T04:10:00.197Z,12.48
2022-09-14T04:12:27.464Z,12.48
2022-09-14T04:14:54.736Z,12.82
2022-09-14T04:17:22.414Z,13.32
2022-09-14T04:19:49.957Z,13.00
2022-09-14T04:22:17.155Z,13.52
2022-09-14T04:24:44.663Z,12.85
2022-09-14T04:27:12.134Z,13.23
2022-09-14T04:29:39.465Z,12.88
2022-09-14T04:32:07.150Z,13.25
2022-09-14T04:34:34.369Z,15.60
2022-09-14T04:37:01.608Z,13.90
2022-09-14T04:39:28.810Z,11.25
2022-09-14T04:41:56.088Z,13.23
2022-09-14T04:44:23.268Z,13.52
2022-09-14T04:46:50.468Z,15.05
2022-09-14T04:49:18.997Z,14.07
2022-09-14T04:51:46.311Z,13.20
2022-09-14T04:54:13.589Z,13.82
2022-09-14T04:56:40.737Z,13.65
2022-09-14T04:59:08.085Z,15.07
2022-09-14T05:01:35.577Z,15.35
2022-09-14T05:04:02.883Z,14.35
2022-09-14T05:06:30.026Z,14.35
2022-09-14T05:08:57.271Z,15.55
2022-09-14T05:11:24.498Z,15.15
2022-09-14T05:13:52.031Z,15.02
2022-09-14T05:16:19.323Z,15.23
2022-09-14T05:18:46.691Z,15.90
2022-09-14T05:21:13.853Z,14.55
2022-09-14T05:23:41.141Z,15.02
2022-09-14T05:26:08.375Z,14.50
2022-09-14T05:28:35.703Z,14.10
2022-09-14T05:31:02.996Z,14.88
2022-09-14T05:33:30.345Z,13.15
2022-09-14T05:35:57.531Z,13.70
2022-09-14T05:38:24.764Z,13.02
2022-09-14T05:40:52.000Z,12.32
2022-09-14T05:43:20.173Z,12.68
2022-09-14T05:45:47.406Z,11.55
2022-09-14T05:48:14.610Z,11.85
2022-09-14T05:50:41.846Z,11.82
2022-09-14T05:53:09.144Z,10.55
2022-09-14T05:55:36.341Z,10.25
2022-09-14T05:58:04.542Z,11.57
2022-09-14T06:00:31.741Z,11.07
2022-09-14T06:02:58.966Z,10.85
2022-09-14T06:05:26.282Z,10.77
2022-09-14T06:07:53.641Z,11.07
2022-09-14T06:10:20.841Z,12.43
2022-09-14T06:12:51.169Z,11.40
2022-09-14T06:15:20.825Z,10.05
2022-09-14T06:17:47.977Z,10.05
2022-09-14T06:20:15.179Z,10.45
2022-09-14T06:22:42.437Z,9.60
2022-09-14T06:25:11.482Z,9.05
2022-09-14T06:27:38.652Z,9.70
2022-09-14T06:30:05.911Z,8.30
2022-09-14T06:32:33.107Z,8.60
2022-09-14T06:35:00.324Z,8.45
2022-09-14T06:37:27.503Z,7.47
2022-09-14T06:39:54.814Z,7.68
2022-09-14T06:42:22.020Z,7.35
2022-09-14T06:44:52.368Z,6.72
2022-09-14T06:47:19.585Z,6.13
2022-09-14T06:49:46.809Z,5.72
2022-09-14T06:52:14.150Z,5.78
2022-09-14T06:54:41.309Z,6.30
2022-09-14T06:57:08.519Z,6.68
2022-09-14T06:59:35.688Z,6.50
2022-09-14T07:02:02.936Z,6.55
2022-09-14T07:04:30.211Z,7.13
2022-09-14T07:06:57.401Z,6.57
2022-09-14T07:09:25.262Z,7.35
2022-09-14T07:11:52.588Z,5.72
2022-09-14T07:14:20.224Z,5.55
2022-09-14T07:16:47.500Z,5.97
2022-09-14T07:19:14.762Z,6.63
2022-09-14T07:21:42.207Z,4.78
2022-09-14T07:24:09.453Z,5.60
2022-09-14T07:26:39.569Z,6.25
2022-09-14T07:29:06.869Z,5.32
2022-09-14T07:31:34.055Z,5.90
2022-09-14T07:34:01.993Z,6.20
2022-09-14T07:36:32.725Z,6.03
2022-09-14T07:39:02.022Z,5.60
2022-09-14T07:41:29.363Z,5.40
2022-09-14T07:43:57.230Z,4.93
2022-09-14T07:46:24.521Z,5.63
2022-09-14T07:48:51.865Z,5.25
2022-09-14T07:51:19.144Z,4.80
2022-09-14T07:53:46.502Z,6.13
2022-09-14T07:56:13.657Z,4.55
2022-09-14T07:58:42.108Z,5.32
2022-09-14T08:01:09.442Z,5.20
2022-09-14T08:03:36.672Z,5.30
2022-09-14T08:06:03.807Z,4.97
2022-09-14T08:08:30.994Z,5.18
2022-09-14T08:10:58.247Z,5.55
2022-09-14T08:13:25.510Z,5.05
2022-09-14T08:15:52.655Z,5.90
2022-09-14T08:18:19.794Z,5.30
2022-09-14T08:20:46.930Z,5.20
2022-09-14T08:23:14.110Z,5.35
2022-09-14T08:25:41.230Z,5.90
2022-09-14T08:28:08.392Z,5.72
2022-09-14T08:30:35.550Z,6.40
2022-09-14T08:33:02.689Z,5.85
2022-09-14T08:35:56.101Z,6.15
2022-09-14T08:38:17.103Z,5.82
2022-09-14T08:40:45.346Z,6.40
2022-09-14T08:43:12.532Z,6.63
2022-09-14T08:45:39.661Z,6.13
2022-09-14T08:48:06.900Z,5.05
2022-09-14T08:50:38.624Z,5.35
2022-09-14T08:53:06.037Z,4.38
2022-09-14T08:55:33.305Z,4.38
2022-09-14T08:58:01.018Z,4.57
2022-09-14T09:00:28.203Z,4.20
2022-09-14T09:02:55.346Z,4.15
2022-09-14T09:05:22.574Z,3.92
2022-09-14T09:07:50.836Z,3.65
2022-09-14T09:10:18.010Z,4.03
2022-09-14T09:12:45.134Z,3.40
2022-09-14T09:15:12.310Z,3.15
2022-09-14T09:17:39.494Z,3.10
2022-09-14T09:20:07.077Z,3.28
2022-09-14T09:22:34.475Z,2.95
2022-09-14T09:25:03.168Z,3.38
2022-09-14T09:27:30.327Z,2.90
2022-09-14T09:29:57.542Z,3.22
2022-09-14T09:32:28.174Z,3.00
2022-09-14T09:34:55.370Z,3.28
2022-09-14T09:37:35.008Z,2.95
2022-09-14T09:40:02.318Z,2.63
2022-09-14T09:42:29.520Z,2.95
2022-09-14T09:45:01.282Z,2.10
2022-09-14T09:47:30.455Z,2.22
2022-09-14T09:49:57.686Z,2.75
2022-09-14T09:52:24.889Z,2.60
2022-09-14T09:54:52.113Z,2.28
2022-09-14T09:57:19.398Z,2.15
2022-09-14T09:59:46.917Z,2.63
2022-09-14T10:02:14.225Z,3.20
2022-09-14T10:04:41.530Z,2.15
2022-09-14T10:07:08.772Z,2.45
2022-09-14T10:09:36.611Z,3.25
2022-09-14T10:12:03.810Z,2.47
2022-09-14T10:14:34.137Z,2.50
2022-09-14T10:17:01.366Z,2.10
2022-09-14T10:19:30.679Z,3.05
2022-09-14T10:21:59.104Z,2.25
2022-09-14T10:24:26.444Z,2.20
2022-09-14T10:26:53.825Z,2.35
2022-09-14T10:29:21.247Z,2.58
2022-09-14T10:31:49.183Z,1.92
2022-09-14T10:34:17.377Z,3.58
2022-09-14T10:36:44.640Z,2.33
2022-09-14T10:39:12.915Z,2.30
2022-09-14T10:41:40.391Z,2.78
2022-09-14T10:44:07.736Z,2.35
2022-09-14T10:46:35.035Z,1.90
2022-09-14T10:49:02.394Z,2.17
2022-09-14T10:51:29.809Z,1.67
2022-09-14T10:53:57.066Z,2.30
2022-09-14T10:56:24.289Z,1.73
2022-09-14T10:58:51.631Z,2.25
2022-09-14T11:01:19.059Z,2.00
2022-09-14T11:03:46.377Z,3.10
2022-09-14T11:06:13.680Z,2.15
2022-09-14T11:08:40.877Z,2.08
2022-09-14T11:11:11.291Z,2.53
2022-09-14T11:13:38.882Z,2.50
2022-09-14T11:16:06.183Z,2.50
2022-09-14T11:18:33.464Z,3.20
2022-09-14T11:21:00.656Z,3.65
2022-09-14T11:23:27.885Z,2.80
2022-09-14T11:25:55.121Z,2.35
2022-09-14T11:28:22.394Z,3.45
2022-09-14T11:30:49.595Z,3.22
2022-09-14T11:33:16.916Z,4.38
2022-09-14T11:35:45.157Z,3.10
2022-09-14T11:38:12.518Z,3.13
2022-09-14T11:40:39.796Z,3.58
2022-09-14T11:43:07.072Z,3.10
2022-09-14T11:45:34.219Z,3.05
2022-09-14T11:48:01.535Z,2.83
2022-09-14T11:50:28.689Z,2.53
2022-09-14T11:52:56.007Z,2.42
2022-09-14T11:55:23.380Z,2.65
2022-09-14T11:57:50.962Z,2.25
2022-09-14T12:00:18.209Z,2.53
2022-09-14T12:02:45.557Z,2.60
2022-09-14T12:05:13.001Z,2.97
2022-09-14T12:07:43.636Z,2.83
2022-09-14T12:10:11.558Z,1.67
2022-09-14T12:12:38.974Z,3.67
2022-09-14T12:15:06.176Z,1.45
2022-09-14T12:17:41.384Z,1.55
2022-09-14T12:20:08.676Z,1.67
2022-09-14T12:22:35.862Z,1.73
2022-09-14T12:25:03.091Z,2.13
2022-09-14T12:27:30.294Z,2.22
2022-09-14T12:29:57.556Z,1.60
2022-09-14T12:32:25.056Z,1.65
2022-09-14T12:34:52.308Z,1.33
2022-09-14T12:37:19.470Z,1.40
2022-09-14T12:39:46.719Z,1.10
2022-09-14T12:42:13.949Z,1.23
2022-09-14T12:44:41.218Z,1.30
2022-09-14T12:47:08.398Z,0.73
2022-09-14T12:49:35.739Z,1.10
2022-09-14T12:52:03.531Z,1.20
2022-09-14T12:54:30.758Z,0.90
2022-09-14T12:56:58.007Z,1.20
2022-09-14T12:59:27.605Z,1.13
2022-09-14T13:01:54.976Z,1.23
2022-09-14T13:04:22.321Z,1.20
2022-09-14T13:06:49.565Z,1.30
2022-09-14T13:09:16.860Z,1.35
2022-09-14T13:11:44.089Z,1.45
2022-09-14T13:14:11.324Z,1.60
2022-09-14T13:16:38.553Z,1.30
2022-09-14T13:19:09.093Z,1.25
2022-09-14T13:21:39.786Z,1.70
2022-09-14T13:24:07.056Z,1.55
2022-09-14T13:26:34.308Z,1.70
2022-09-14T13:29:01.467Z,1.75
2022-09-14T13:31:29.221Z,1.10
2022-09-14T13:33:56.648Z,1.55
2022-09-14T13:36:23.877Z,1.13
2022-09-14T13:38:51.191Z,1.25
2022-09-14T13:41:18.557Z,2.42
2022-09-14T13:43:47.355Z,2.10
2022-09-14T13:46:19.681Z,1.45
2022-09-14T13:48:47.599Z,1.45
2022-09-14T13:51:14.890Z,1.40
2022-09-14T13:53:42.533Z,1.30
2022-09-14T13:56:09.753Z,1.63
2022-09-14T13:58:37.009Z,1.27
2022-09-14T14:01:04.585Z,1.50
2022-09-14T14:03:31.974Z,1.40
2022-09-14T14:05:59.301Z,1.20
2022-09-14T14:08:26.613Z,1.10
2022-09-14T14:10:54.169Z,1.73
2022-09-14T14:13:21.412Z,4.70
2022-09-14T14:15:48.616Z,4.05
2022-09-14T14:18:15.826Z,1.33
2022-09-14T14:20:43.077Z,1.27
2022-09-14T14:23:13.461Z,1.92
2022-09-14T14:25:45.765Z,1.13
2022-09-14T14:28:13.423Z,1.33
2022-09-14T14:30:40.647Z,1.20
2022-09-14T14:33:08.547Z,1.10
2022-09-14T14:35:35.790Z,1.40
2022-09-14T14:38:03.063Z,1.92
2022-09-14T14:40:30.955Z,1.02
2022-09-14T14:42:58.407Z,1.85
2022-09-14T14:45:33.096Z,1.85
2022-09-14T14:48:02.722Z,1.58
2022-09-14T14:50:29.894Z,1.08
2022-09-14T14:52:57.170Z,1.55
2022-09-14T14:55:24.449Z,1.30
2022-09-14T14:57:51.673Z,1.52
2022-09-14T15:00:18.886Z,1.65
2022-09-14T15:02:46.158Z,1.23
2022-09-14T15:05:13.384Z,1.67
2022-09-14T15:07:40.609Z,1.35
2022-09-14T15:10:07.790Z,1.30
2022-09-14T15:12:35.615Z,2.47
2022-09-14T15:15:02.905Z,1.10
2022-09-14T15:17:30.092Z,1.33
2022-09-14T15:19:57.258Z,1.00
2022-09-14T15:22:25.174Z,1.10
2022-09-14T15:24:52.494Z,1.20
2022-09-14T15:27:19.700Z,1.27
2022-09-14T15:29:46.877Z,1.50
2022-09-14T15:32:14.136Z,1.27
2022-09-14T15:34:42.437Z,1.40
2022-09-14T15:37:09.749Z,1.40
2022-09-14T15:39:36.945Z,1.42
2022-09-14T15:42:04.135Z,1.60
2022-09-14T15:44:32.926Z,1.42
2022-09-14T15:47:01.285Z,1.38
2022-09-14T15:49:28.548Z,1.08
2022-09-14T15:51:55.827Z,0.93
2022-09-14T15:54:26.256Z,1.73
2022-09-14T15:56:53.894Z,1.50
2022-09-14T15:59:21.157Z,1.10
2022-09-14T16:01:48.496Z,1.15
2022-09-14T16:04:16.072Z,1.88
2022-09-14T16:06:43.398Z,1.13
2022-09-14T16:09:10.648Z,1.40
2022-09-14T16:11:37.973Z,1.25
2022-09-14T16:14:08.213Z,0.98
2022-09-14T16:16:35.609Z,2.03
2022-09-14T16:19:02.958Z,1.30
2022-09-14T16:21:30.167Z,1.17
2022-09-14T16:23:57.801Z,1.30
2022-09-14T16:26:24.964Z,1.45
2022-09-14T16:28:52.196Z,2.47
2022-09-14T16:31:19.451Z,1.77
2022-09-14T16:33:46.670Z,0.88
2022-09-14T16:36:14.017Z,1.27
2022-09-14T16:38:41.153Z,1.13
2022-09-14T16:41:08.350Z,1.15
2022-09-14T16:43:35.580Z,1.25
2022-09-14T16:46:02.935Z,1.13
2022-09-14T16:48:30.215Z,1.10
2022-09-14T16:50:57.591Z,1.52
2022-09-14T16:53:25.102Z,1.20
2022-09-14T16:55:52.314Z,1.23
2022-09-14T16:58:19.496Z,1.10
2022-09-14T17:00:46.769Z,1.45
2022-09-14T17:03:13.950Z,1.15
2022-09-14T17:05:41.230Z,1.60
2022-09-14T17:08:08.521Z,1.20
2022-09-14T17:10:36.156Z,1.10
2022-09-14T17:13:03.343Z,1.60
2022-09-14T17:15:30.850Z,1.63
2022-09-14T17:17:58.031Z,1.20
2022-09-14T17:20:25.345Z,1.00
2022-09-14T17:22:52.617Z,1.17
2022-09-14T17:25:20.170Z,1.45
2022-09-14T17:27:47.406Z,0.90
2022-09-14T17:30:14.646Z,0.93
2022-09-14T17:32:41.843Z,0.98
2022-09-14T17:35:09.297Z,1.13
2022-09-14T17:37:36.469Z,1.48
2022-09-14T17:40:03.805Z,1.60
2022-09-14T17:42:31.107Z,1.75
2022-09-14T17:44:58.365Z,1.75
2022-09-14T17:47:26.448Z,1.20
2022-09-14T17:49:53.762Z,1.50
2022-09-14T17:52:20.962Z,1.80
2022-09-14T17:54:48.209Z,1.70
2022-09-14T17:57:15.453Z,1.90
2022-09-14T17:59:42.801Z,1.48
2022-09-14T18:02:09.991Z,1.20
2022-09-14T18:04:37.276Z,2.13
2022-09-14T18:07:04.528Z,1.58
2022-09-14T18:09:31.868Z,1.30
2022-09-14T18:11:59.062Z,1.48
2022-09-14T18:14:26.271Z,1.90
2022-09-14T18:16:53.445Z,1.27
2022-09-14T18:19:20.708Z,1.65
2022-09-14T18:21:52.165Z,2.33
2022-09-14T18:24:19.790Z,1.80
2022-09-14T18:26:48.691Z,1.73
2022-09-14T18:29:15.987Z,1.55
2022-09-14T18:31:43.632Z,1.58
2022-09-14T18:34:10.960Z,1.83
2022-09-14T18:36:38.200Z,1.85
2022-09-14T18:39:05.573Z,1.88
2022-09-14T18:41:34.155Z,1.90
2022-09-14T18:44:01.770Z,1.90
2022-09-14T18:46:29.036Z,1.83
2022-09-14T18:48:56.800Z,2.08
2022-09-14T18:51:24.007Z,2.00
2022-09-14T18:53:51.250Z,2.30
2022-09-14T18:56:19.146Z,2.72
2022-09-14T18:58:46.444Z,2.00
2022-09-14T19:01:13.715Z,1.70
2022-09-14T19:03:41.009Z,2.30
2022-09-14T19:06:08.326Z,1.88
2022-09-14T19:08:35.563Z,1.90
2022-09-14T19:11:02.890Z,1.88
2022-09-14T19:13:30.053Z,2.10
2022-09-14T19:15:57.320Z,2.15
2022-09-14T19:18:24.575Z,2.17
2022-09-14T19:21:05.844Z,3.10
2022-09-14T19:23:33.967Z,4.35
2022-09-14T19:26:01.122Z,4.10
2022-09-14T19:28:28.384Z,3.90
2022-09-14T19:30:55.734Z,4.65
2022-09-14T19:33:22.998Z,4.97
2022-09-14T19:35:50.184Z,4.80
2022-09-14T19:38:17.407Z,3.70
2022-09-14T19:40:44.569Z,3.55
2022-09-14T19:43:11.902Z,3.58
2022-09-14T19:45:39.167Z,3.38
2022-09-14T19:48:06.521Z,3.40
2022-09-14T19:50:33.789Z,3.88
2022-09-14T19:53:04.478Z,3.25
2022-09-14T19:55:32.173Z,3.30
2022-09-14T19:57:59.382Z,3.55
2022-09-14T20:00:26.681Z,5.28
2022-09-14T20:02:53.900Z,3.38
2022-09-14T20:05:21.261Z,4.93
2022-09-14T20:07:49.541Z,4.15
2022-09-14T20:10:18.278Z,4.25
2022-09-14T20:12:46.649Z,4.18
2022-09-14T20:15:14.037Z,3.90
2022-09-14T20:17:41.197Z,4.20
2022-09-14T20:20:08.590Z,3.97
2022-09-14T20:22:35.775Z,4.65
2022-09-14T20:25:03.058Z,4.22
2022-09-14T20:27:30.242Z,5.15
2022-09-14T20:29:57.522Z,3.95
2022-09-14T20:32:25.185Z,4.35
2022-09-14T20:34:52.417Z,3.30
2022-09-14T20:37:19.633Z,3.90
2022-09-14T20:39:46.891Z,4.47
2022-09-14T20:42:14.093Z,4.70
2022-09-14T20:44:41.411Z,4.45
2022-09-14T20:47:08.564Z,4.47
2022-09-14T20:49:36.127Z,5.70
2022-09-14T20:52:03.619Z,4.40
2022-09-14T20:54:30.808Z,4.90
2022-09-14T20:57:03.537Z,4.78
2022-09-14T20:59:31.777Z,5.93
2022-09-14T21:02:01.224Z,5.93
2022-09-14T21:04:31.943Z,7.63
2022-09-14T21:06:59.234Z,7.50
2022-09-14T21:09:26.538Z,8.18
2022-09-14T21:11:53.709Z,7.20
2022-09-14T21:14:20.934Z,8.95
2022-09-14T21:16:48.464Z,9.50
2022-09-14T21:19:18.649Z,9.32
2022-09-14T21:21:46.058Z,9.60
2022-09-14T21:24:13.586Z,8.82
2022-09-14T21:26:42.839Z,8.30
2022-09-14T21:29:10.367Z,10.98
2022-09-14T21:31:37.697Z,9.07
2022-09-14T21:34:05.010Z,9.35
2022-09-14T21:36:34.497Z,10.68
2022-09-14T21:39:01.772Z,10.50
2022-09-14T21:41:29.095Z,10.55
2022-09-14T21:43:56.953Z,9.50
2022-09-14T21:46:24.411Z,10.20
2022-09-14T21:48:51.848Z,10.13
2022-09-14T21:51:19.126Z,11.55
2022-09-14T21:53:46.472Z,10.07
2022-09-14T21:56:13.708Z,9.55
2022-09-14T21:58:41.250Z,9.68
2022-09-14T22:01:08.829Z,8.48
2022-09-14T22:03:36.730Z,9.40
2022-09-14T22:06:04.197Z,9.95
2022-09-14T22:08:31.405Z,9.95
2022-09-14T22:10:58.665Z,8.82
2022-09-14T22:13:26.631Z,8.43
2022-09-14T22:15:55.058Z,9.25
2022-09-14T22:18:22.270Z,9.02
2022-09-14T22:20:49.497Z,8.40
2022-09-14T22:23:16.650Z,9.07
2022-09-14T22:25:43.915Z,9.05
2022-09-14T22:28:11.093Z,7.72
2022-09-14T22:30:38.380Z,9.07
2022-09-14T22:33:05.758Z,8.65
2022-09-14T22:35:33.032Z,8.25
2022-09-14T22:38:01.760Z,8.68
2022-09-14T22:40:29.045Z,8.82
2022-09-14T22:42:56.309Z,9.40
2022-09-14T22:45:23.511Z,8.63
2022-09-14T22:47:50.773Z,8.90
2022-09-14T22:50:18.052Z,8.93
2022-09-14T22:52:45.207Z,8.48
2022-09-14T22:55:13.892Z,8.50
2022-09-14T22:57:41.175Z,8.15
2022-09-14T23:00:10.131Z,8.70
2022-09-14T23:02:37.320Z,7.30
2022-09-14T23:05:04.565Z,7.30
2022-09-14T23:07:31.920Z,6.55
2022-09-14T23:09:59.870Z,7.05
2022-09-14T23:12:27.057Z,6.65
2022-09-14T23:14:54.377Z,6.35
2022-09-14T23:17:22.293Z,7.32
2022-09-14T23:19:50.022Z,6.10
2022-09-14T23:22:17.303Z,6.13
2022-09-14T23:24:44.539Z,5.65
2022-09-14T23:27:11.749Z,5.65
2022-09-14T23:29:38.978Z,6.05
2022-09-14T23:32:06.169Z,5.95
2022-09-14T23:34:33.486Z,5.57
2022-09-14T23:37:01.649Z,5.78
2022-09-14T23:39:28.890Z,6.07
2022-09-14T23:41:56.129Z,5.38
2022-09-14T23:44:23.421Z,5.72
2022-09-14T23:46:50.574Z,5.93
2022-09-14T23:49:17.822Z,5.82
2022-09-14T23:51:45.165Z,5.93
2022-09-14T23:54:12.349Z,5.65
2022-09-14T23:56:39.660Z,4.80
2022-09-14T23:59:06.876Z,5.57
